»·PEaware :: N416JK KOLS-KPHX

N416JK :: KOLS-KPHX

FLIGHT INFORMATION

Flight Status: Arrived
Operator: Privately registered:
United States
More flights under this callsign
Pilot: John K. (4202)
Aircraft: CESSNA 206 STATIONAIR
(C206)
More flights by this aircraft type
Origin: KOLS Nogales Intl
United States
Destination: KPHX Phoenix Sky Harbor Intl
United States
More flights between these airports :: More routes between these airports
Route: TUS V105 PXR
File this flight plan on PilotEdge
Remarks:
Altitude:
(Current/Filed)
8,000ft
Speed:
(Current/Filed)
160kts
Departed: 17-Oct-20 09:04 AM
Arrived: 17-Oct-20 10:09 AM
Distance/Time
Traveled:
134nm/1:05
Distance/Time
To Go:
Arrived

Flight Plot

Page will automatically refresh every two minutes.

Flight plan parsing failed; only flown route is shown


Map Options




Map Legend


Flown Route
Filed Route
Departure Airport
Arrival Airport
Navaid (VOR, NDB)
Fix

Horizontal Profiles

Position Reports

Time Latitude Longitude Heading Altitude Ground
Speed
17-Oct-20 08:53 31.418155 -110.850004 45 3886ft 0kts
17-Oct-20 08:54 31.418155 -110.850004 45 3886ft 0kts
17-Oct-20 08:55 31.418155 -110.850004 45 3886ft 0kts
17-Oct-20 08:56 31.418155 -110.850004 45 3886ft 0kts
17-Oct-20 08:57 31.418505 -110.848694 50 3892ft 5kts
17-Oct-20 08:58 31.421664 -110.844924 61 3914ft 13kts
17-Oct-20 08:59 31.425114 -110.840626 75 3938ft 8kts
17-Oct-20 09:00 31.425074 -110.840278 122 3940ft 0kts
17-Oct-20 09:01 31.425074 -110.840278 122 3940ft 0kts
17-Oct-20 09:02 31.425074 -110.840278 122 3940ft 0kts
17-Oct-20 09:03 31.421668 -110.842863 228 3924ft 71kts
17-Oct-20 09:04 31.409786 -110.870946 307 5041ft 119kts
17-Oct-20 09:05 31.438827 -110.869127 21 6149ft 132kts
17-Oct-20 09:06 31.476050 -110.854878 358 7068ft 147kts
17-Oct-20 09:07 31.517730 -110.857754 351 7974ft 152kts
17-Oct-20 09:08 31.564844 -110.862365 352 8032ft 179kts
17-Oct-20 09:09 31.614945 -110.867285 351 8146ft 181kts
17-Oct-20 09:10 31.665286 -110.872247 351 8226ft 182kts
17-Oct-20 09:11 31.715988 -110.877245 351 8320ft 180kts
17-Oct-20 09:12 31.766113 -110.882191 351 8177ft 181kts
17-Oct-20 09:13 31.815705 -110.887089 351 7945ft 173kts
17-Oct-20 09:14 31.861910 -110.891675 351 7945ft 163kts
17-Oct-20 09:15 31.906918 -110.896135 351 7944ft 159kts
17-Oct-20 09:16 31.949653 -110.900369 351 7945ft 151kts
17-Oct-20 09:17 31.991188 -110.904508 351 7945ft 149kts
17-Oct-20 09:18 32.032545 -110.908624 351 7945ft 149kts
17-Oct-20 09:19 32.073899 -110.912740 351 7945ft 149kts
17-Oct-20 09:20 32.104789 -110.938183 301 7945ft 140kts
17-Oct-20 09:21 32.125871 -110.976949 298 7944ft 140kts
17-Oct-20 09:22 32.144148 -111.012902 297 7944ft 140kts
17-Oct-20 09:23 32.148974 -111.022476 297 7944ft 140kts
17-Oct-20 09:24 32.168812 -111.062139 297 7929ft 141kts
17-Oct-20 09:25 32.188665 -111.101949 297 7926ft 140kts
17-Oct-20 09:26 32.208497 -111.141772 297 7926ft 140kts
17-Oct-20 09:27 32.228250 -111.181483 297 7926ft 140kts
17-Oct-20 09:28 32.247405 -111.221552 296 7926ft 140kts
17-Oct-20 09:29 32.266536 -111.261811 296 7889ft 139kts
17-Oct-20 09:30 32.285392 -111.301532 296 7889ft 138kts
17-Oct-20 09:31 32.304160 -111.341131 296 7889ft 138kts
17-Oct-20 09:32 32.322906 -111.380723 296 7889ft 138kts
17-Oct-20 09:33 32.343177 -111.419659 299 7889ft 138kts
17-Oct-20 09:34 32.363581 -111.457713 299 7888ft 134kts
17-Oct-20 09:35 32.384624 -111.493906 316 7889ft 139kts
17-Oct-20 09:36 32.416685 -111.521741 321 7889ft 145kts
17-Oct-20 09:37 32.449959 -111.549199 321 7888ft 146kts
17-Oct-20 09:38 32.483387 -111.576635 321 7888ft 146kts
17-Oct-20 09:39 32.516779 -111.604037 321 7888ft 146kts
17-Oct-20 09:40 32.550187 -111.631475 321 7888ft 146kts
17-Oct-20 09:41 32.583447 -111.658808 320 8019ft 137kts
17-Oct-20 09:42 32.615669 -111.685376 321 8056ft 144kts
17-Oct-20 09:43 32.649045 -111.712868 321 8055ft 146kts
17-Oct-20 09:44 32.682497 -111.740452 321 8055ft 146kts
17-Oct-20 09:45 32.716060 -111.768169 321 8055ft 146kts
17-Oct-20 09:46 32.749488 -111.795782 321 8055ft 146kts
17-Oct-20 09:47 32.782908 -111.823411 320 8055ft 146kts
17-Oct-20 09:48 32.816316 -111.851078 320 8055ft 146kts
17-Oct-20 09:49 32.849495 -111.878575 320 8082ft 146kts
17-Oct-20 09:50 32.883310 -111.905461 337 8078ft 150kts
17-Oct-20 09:51 32.925086 -111.912735 348 8082ft 152kts
17-Oct-20 09:52 32.967356 -111.917778 349 8082ft 153kts
17-Oct-20 09:53 33.009682 -111.922538 349 8082ft 153kts
17-Oct-20 09:54 33.051905 -111.927255 349 8082ft 153kts
17-Oct-20 09:55 33.094304 -111.931995 349 8082ft 153kts
17-Oct-20 09:56 33.136658 -111.936735 349 8082ft 153kts
17-Oct-20 09:57 33.179194 -111.941502 349 8037ft 154kts
17-Oct-20 09:58 33.221638 -111.946283 349 8036ft 153kts
17-Oct-20 09:59 33.264074 -111.951070 349 8024ft 154kts
17-Oct-20 10:00 33.307300 -111.955992 349 7762ft 167kts
17-Oct-20 10:01 33.351437 -111.962109 341 6028ft 147kts
17-Oct-20 10:02 33.391060 -111.974461 343 3292ft 142kts
17-Oct-20 10:04 33.407907 -112.010528 264 2079ft 132kts
17-Oct-20 10:05 33.402294 -112.056337 262 2212ft 138kts
17-Oct-20 10:06 33.416095 -112.084278 349 1765ft 108kts
17-Oct-20 10:07 33.431214 -112.069951 104 1765ft 96kts
17-Oct-20 10:08 33.428771 -112.038607 90 1346ft 91kts
17-Oct-20 10:09 33.428791 -112.017351 100 1115ft 18kts
17-Oct-20 10:10 33.427974 -112.016675 209 1115ft 0kts
17-Oct-20 10:11 33.427775 -112.020801 265 1113ft 17kts
17-Oct-20 10:12 33.425367 -112.020888 11 1112ft 0kts

Navigation Log

Ident Type
Flight plan parsing failed, navigation log unavailable